createdAt,value
2019-04-22T00:02:11.905Z,6.08
2019-04-22T00:07:41.970Z,3.95
2019-04-22T00:12:47.282Z,4.20
2019-04-22T00:23:00.097Z,3.67
2019-04-22T00:28:05.069Z,5.78
2019-04-22T00:33:07.598Z,3.42
2019-04-22T00:38:17.277Z,5.22
2019-04-22T00:43:24.646Z,5.00
2019-04-22T00:48:27.800Z,4.10
2019-04-22T00:53:36.050Z,5.15
2019-04-22T00:58:37.908Z,3.40
2019-04-22T01:03:51.076Z,3.27
2019-04-22T01:08:56.416Z,3.67
2019-04-22T01:13:50.172Z,4.00
2019-04-22T01:19:00.443Z,3.50
2019-04-22T01:24:05.865Z,3.42
2019-04-22T01:29:01.055Z,4.08
2019-04-22T01:34:07.891Z,4.33
2019-04-22T01:39:23.309Z,4.05
2019-04-22T01:44:33.200Z,3.60
2019-04-22T01:49:38.259Z,3.55
2019-04-22T01:54:40.297Z,3.47
2019-04-22T01:59:44.307Z,4.45
2019-04-22T02:04:51.388Z,4.00
2019-04-22T02:09:55.055Z,4.40
2019-04-22T02:15:06.649Z,4.22
2019-04-22T02:25:18.549Z,4.10
2019-04-22T02:30:30.399Z,3.72
2019-04-22T02:35:40.704Z,4.65
2019-04-22T02:40:44.368Z,5.03
2019-04-22T02:45:50.461Z,4.03
2019-04-22T02:50:54.829Z,4.40
2019-04-22T02:56:02.591Z,7.60
2019-04-22T03:01:06.007Z,7.87
2019-04-22T03:11:15.223Z,4.03
2019-04-22T03:21:31.926Z,3.47
2019-04-22T03:26:31.770Z,4.58
2019-04-22T03:32:28.920Z,3.87
2019-04-22T03:42:05.757Z,3.15
2019-04-22T04:07:42.583Z,3.85
2019-04-22T04:12:33.396Z,3.17
2019-04-22T04:17:50.521Z,3.83
2019-04-22T04:22:54.194Z,6.97
2019-04-22T04:32:55.142Z,3.33
2019-04-22T04:42:58.527Z,2.80
2019-04-22T04:48:01.918Z,4.30
2019-04-22T05:03:32.764Z,8.80
2019-04-22T05:08:42.597Z,5.72
2019-04-22T05:13:39.395Z,9.00
2019-04-22T05:18:39.339Z,10.68
2019-04-22T05:28:44.957Z,13.70
2019-04-22T05:33:48.332Z,15.28
2019-04-22T05:38:53.477Z,13.08
2019-04-22T05:44:03.540Z,25.40
2019-04-22T05:49:09.734Z,12.25
2019-04-22T05:54:13.308Z,11.10
2019-04-22T05:59:22.774Z,15.80
2019-04-22T06:04:37.316Z,10.88
2019-04-22T06:09:28.799Z,23.67
2019-04-22T06:14:30.742Z,18.32
2019-04-22T06:19:38.006Z,29.65
2019-04-22T06:24:43.672Z,18.23
2019-04-22T06:29:45.789Z,25.43
2019-04-22T06:35:00.458Z,26.90
2019-04-22T06:39:59.264Z,29.52
2019-04-22T06:45:04.154Z,17.50
2019-04-22T06:50:09.467Z,13.53
2019-04-22T06:55:15.127Z,16.52
2019-04-22T07:00:17.493Z,16.73
2019-04-22T07:05:25.253Z,30.37
2019-04-22T07:10:36.946Z,17.37
2019-04-22T07:15:46.248Z,11.00
2019-04-22T07:20:48.025Z,13.48
2019-04-22T07:25:49.311Z,12.88
2019-04-22T07:30:53.415Z,12.45
2019-04-22T07:36:25.969Z,12.93
2019-04-22T07:41:02.083Z,9.43
2019-04-22T07:46:10.935Z,10.55
2019-04-22T07:51:13.035Z,10.85
2019-04-22T07:56:18.676Z,8.28
2019-04-22T08:01:29.631Z,11.38
2019-04-22T08:06:30.991Z,8.43
2019-04-22T08:16:28.526Z,10.08
2019-04-22T08:21:38.305Z,10.93
2019-04-22T08:26:46.803Z,10.95
2019-04-22T08:31:49.194Z,8.23
2019-04-22T08:41:53.116Z,9.15
2019-04-22T08:47:11.016Z,8.40
2019-04-22T08:52:08.727Z,7.67
2019-04-22T08:57:20.624Z,12.98
2019-04-22T09:02:25.863Z,8.50
2019-04-22T09:12:47.113Z,7.17
2019-04-22T09:17:34.325Z,11.75
2019-04-22T09:22:40.993Z,7.33
2019-04-22T09:32:54.162Z,9.45
2019-04-22T09:38:12.565Z,10.00
2019-04-22T09:43:03.203Z,7.97
2019-04-22T09:48:08.776Z,11.15
2019-04-22T09:53:14.860Z,10.25
2019-04-22T09:58:16.194Z,12.65
2019-04-22T10:03:20.376Z,14.68
2019-04-22T10:08:33.888Z,8.63
2019-04-22T10:13:34.634Z,20.40
2019-04-22T10:18:40.561Z,16.73
2019-04-22T10:23:47.259Z,11.25
2019-04-22T10:28:53.106Z,10.95
2019-04-22T10:33:46.412Z,11.75
2019-04-22T10:38:34.902Z,10.70
2019-04-22T10:43:39.198Z,11.33
2019-04-22T10:48:44.258Z,12.63
2019-04-22T10:53:49.366Z,13.50
2019-04-22T10:58:53.167Z,10.38
2019-04-22T11:03:57.164Z,13.53
2019-04-22T11:09:04.721Z,19.20
2019-04-22T11:14:08.816Z,16.10
2019-04-22T11:19:13.896Z,17.42
2019-04-22T11:24:18.827Z,15.50
2019-04-22T11:29:23.760Z,16.35
2019-04-22T11:34:28.985Z,15.58
2019-04-22T11:39:36.449Z,27.37
2019-04-22T11:44:39.116Z,12.85
2019-04-22T11:49:43.964Z,13.18
2019-04-22T11:54:48.575Z,12.58
2019-04-22T11:59:52.318Z,10.93
2019-04-22T12:04:56.191Z,10.70
2019-04-22T12:09:59.835Z,7.60
2019-04-22T12:15:08.433Z,11.15
2019-04-22T12:20:16.530Z,7.58
2019-04-22T12:25:34.723Z,8.38
2019-04-22T12:30:29.830Z,8.78
2019-04-22T12:35:34.614Z,7.22
2019-04-22T12:40:46.651Z,8.70
2019-04-22T12:45:44.760Z,5.95
2019-04-22T12:50:50.598Z,5.33
2019-04-22T12:55:55.243Z,6.65
2019-04-22T13:00:58.999Z,5.22
2019-04-22T13:06:03.776Z,8.05
2019-04-22T13:11:12.144Z,4.85
2019-04-22T13:16:13.462Z,4.60
2019-04-22T13:21:18.404Z,6.30
2019-04-22T13:26:23.202Z,6.28
2019-04-22T13:31:27.018Z,5.33
2019-04-22T13:36:31.802Z,6.58
2019-04-22T13:41:43.953Z,8.50
2019-04-22T13:46:59.181Z,11.83
2019-04-22T13:52:22.639Z,13.48
2019-04-22T13:57:14.898Z,18.50
2019-04-22T14:02:01.078Z,16.62
2019-04-22T14:07:05.164Z,15.78
2019-04-22T14:12:10.268Z,14.68
2019-04-22T14:17:14.247Z,19.95
2019-04-22T14:22:17.934Z,14.60
2019-04-22T14:27:30.602Z,12.15
2019-04-22T14:37:34.098Z,12.40
2019-04-22T14:42:56.446Z,19.65
2019-04-22T14:44:23.273Z,14.18
2019-04-22T14:48:07.165Z,9.88
2019-04-22T14:53:08.285Z,11.75
2019-04-22T14:57:53.396Z,11.53
2019-04-22T15:02:57.602Z,10.30
2019-04-22T15:08:01.320Z,10.88
2019-04-22T15:13:05.529Z,14.70
2019-04-22T15:18:13.791Z,15.32
2019-04-22T15:23:17.411Z,10.48
2019-04-22T15:28:21.699Z,9.95
2019-04-22T15:33:25.701Z,16.62
2019-04-22T15:38:30.251Z,20.27
2019-04-22T15:43:36.870Z,19.10
2019-04-22T15:48:39.915Z,20.75
2019-04-22T15:53:43.591Z,24.23
2019-04-22T15:58:47.996Z,19.15
2019-04-22T16:03:52.448Z,22.20
2019-04-22T16:08:56.087Z,31.45
2019-04-22T16:14:00.241Z,21.85
2019-04-22T16:19:04.462Z,18.23
2019-04-22T16:24:27.742Z,18.67
2019-04-22T16:29:31.631Z,14.40
2019-04-22T16:34:36.067Z,14.45
2019-04-22T16:39:42.076Z,19.73
2019-04-22T16:44:47.429Z,18.40
2019-04-22T16:49:51.803Z,15.78
2019-04-22T16:54:56.525Z,17.02
2019-04-22T17:00:00.548Z,14.47
2019-04-22T17:05:25.460Z,13.70
2019-04-22T17:10:29.426Z,13.58
2019-04-22T17:15:33.408Z,13.32
2019-04-22T17:20:37.684Z,11.35
2019-04-22T17:25:42.528Z,11.88
2019-04-22T17:30:47.736Z,10.63
2019-04-22T17:35:52.739Z,12.07
2019-04-22T17:41:11.675Z,11.63
2019-04-22T17:46:21.461Z,11.22
2019-04-22T17:51:31.499Z,12.45
2019-04-22T17:56:37.299Z,10.78
2019-04-22T18:01:38.280Z,15.23
2019-04-22T18:06:54.834Z,11.83
2019-04-22T18:11:51.192Z,11.83
2019-04-22T18:16:52.104Z,13.25
2019-04-22T18:21:57.326Z,13.98
2019-04-22T18:27:07.189Z,15.58
2019-04-22T18:32:05.414Z,14.38
2019-04-22T18:37:14.287Z,23.80
2019-04-22T18:42:17.377Z,25.52
2019-04-22T18:47:28.085Z,15.32
2019-04-22T18:52:49.255Z,14.73
2019-04-22T18:58:02.734Z,14.93
2019-04-22T19:03:00.981Z,12.55
2019-04-22T19:08:22.590Z,14.70
2019-04-22T19:13:51.254Z,13.32
2019-04-22T19:18:35.026Z,14.28
2019-04-22T19:23:43.995Z,12.75
2019-04-22T19:28:54.125Z,14.47
2019-04-22T19:33:49.369Z,11.88
2019-04-22T19:38:51.132Z,13.83
2019-04-22T19:43:58.331Z,11.97
2019-04-22T19:49:05.119Z,11.33
2019-04-22T19:54:10.290Z,11.38
2019-04-22T19:59:06.799Z,12.82
2019-04-22T20:04:28.605Z,12.88
2019-04-22T20:09:30.095Z,11.22
2019-04-22T20:14:37.389Z,11.15
2019-04-22T20:19:41.311Z,12.68
2019-04-22T20:24:28.408Z,13.58
2019-04-22T20:29:47.895Z,14.25
2019-04-22T20:34:57.910Z,11.38
2019-04-22T20:40:02.401Z,13.68
2019-04-22T20:45:09.894Z,11.03
2019-04-22T20:50:15.960Z,10.98
2019-04-22T20:55:15.342Z,10.50
2019-04-22T21:00:18.767Z,11.05
2019-04-22T21:05:19.704Z,10.35
2019-04-22T21:10:30.087Z,12.00
2019-04-22T21:15:45.612Z,10.72
2019-04-22T21:20:49.490Z,9.63
2019-04-22T21:25:36.895Z,12.20
2019-04-22T21:30:53.890Z,9.43
2019-04-22T21:36:23.119Z,10.35
2019-04-22T21:41:08.167Z,9.00
2019-04-22T21:46:11.882Z,9.38
2019-04-22T21:51:18.857Z,10.38
2019-04-22T21:56:35.261Z,8.63
2019-04-22T22:01:44.401Z,9.03
2019-04-22T22:06:33.645Z,8.65
2019-04-22T22:11:46.496Z,9.63
2019-04-22T22:16:42.934Z,8.58
2019-04-22T22:21:58.664Z,8.75
2019-04-22T22:27:01.519Z,7.95
2019-04-22T22:32:11.705Z,9.38
2019-04-22T22:37:05.366Z,7.55
2019-04-22T22:41:55.564Z,9.40
2019-04-22T22:47:20.864Z,8.18
2019-04-22T22:52:44.645Z,8.98
2019-04-22T22:57:35.209Z,7.67
2019-04-22T23:02:36.881Z,7.65
2019-04-22T23:07:47.840Z,9.20
2019-04-22T23:12:49.957Z,8.60
2019-04-22T23:17:34.282Z,7.03
2019-04-22T23:23:03.783Z,7.85
2019-04-22T23:28:00.077Z,7.95
2019-04-22T23:33:03.410Z,7.55
2019-04-22T23:38:12.372Z,10.75
2019-04-22T23:43:32.764Z,7.15
2019-04-22T23:48:19.188Z,7.12
2019-04-22T23:53:47.451Z,8.13
2019-04-22T23:58:52.639Z,7.65
